Time,TemperatureF,DewpointF,PressureIn,WindDirection,WindDirectionDegrees,WindSpeedMPH,WindSpeedGustMPH,Humidity,HourlyPrecipIn,Conditions,Clouds,dailyrainin,SoftwareType,DateUTC
2013-12-04 00:01:00,39.6,26.0,29.88,ENE,68,0.0,0.0,58,0.00,RA,,0.00,WeatherDisplay:10.37,2013-12-04 05:01:00,
2013-12-04 00:06:00,39.6,26.0,29.88,ENE,68,0.0,0.0,58,0.00,RA,,0.00,WeatherDisplay:10.37,2013-12-04 05:06:00,
2013-12-04 00:11:00,39.4,25.8,29.88,ENE,68,0.0,0.0,58,0.00,CLR,,0.00,WeatherDisplay:10.37,2013-12-04 05:11:00,
2013-12-04 00:16:00,39.4,25.8,29.88,ENE,68,1.4,2.3,58,0.00,CLR,,0.00,WeatherDisplay:10.37,2013-12-04 05:16:00,
2013-12-04 00:21:00,39.6,26.0,29.85,East,90,3.1,3.1,58,0.00,CLR,,0.00,WeatherDisplay:10.37,2013-12-04 05:21:00,
2013-12-04 00:26:00,39.6,26.0,29.85,ESE,112,2.4,4.6,58,0.00,CLR,,0.00,WeatherDisplay:10.37,2013-12-04 05:26:00,
2013-12-04 00:31:00,39.6,26.0,29.85,ESE,112,2.4,3.5,58,0.00,CLR,,0.00,WeatherDisplay:10.37,2013-12-04 05:31:00,
2013-12-04 00:36:00,39.7,26.2,29.85,ESE,112,2.2,3.5,58,0.00,CLR,,0.00,WeatherDisplay:10.37,2013-12-04 05:36:00,
2013-12-04 00:41:00,39.7,26.2,29.85,East,90,0.0,1.2,58,0.00,CLR,,0.00,WeatherDisplay:10.37,2013-12-04 05:41:00,
2013-12-04 00:46:00,39.7,26.2,29.85,ENE,68,3.1,3.6,58,0.00,CLR,,0.00,WeatherDisplay:10.37,2013-12-04 05:46:00,
2013-12-04 00:51:00,39.7,26.2,29.85,ENE,68,2.6,4.6,58,0.00,CLR,,0.00,WeatherDisplay:10.37,2013-12-04 05:51:00,
2013-12-04 00:56:00,39.7,26.2,29.85,ENE,68,2.4,3.1,58,0.00,CLR,,0.00,WeatherDisplay:10.37,2013-12-04 05:56:00,
2013-12-04 01:01:00,39.7,26.2,29.85,SE,135,4.3,4.7,58,0.00,CLR,,0.00,WeatherDisplay:10.37,2013-12-04 06:01:00,
2013-12-04 01:06:00,39.6,26.0,29.85,East,90,3.8,4.6,58,0.00,CLR,,0.00,WeatherDisplay:10.37,2013-12-04 06:06:00,
2013-12-04 01:11:00,39.7,26.2,29.85,NE,45,1.2,2.3,58,0.00,CLR,,0.00,WeatherDisplay:10.37,2013-12-04 06:11:00,
2013-12-04 01:16:00,39.7,26.2,29.85,ENE,68,2.0,2.9,58,0.00,CLR,,0.00,WeatherDisplay:10.37,2013-12-04 06:16:00,
2013-12-04 01:21:00,39.6,26.0,29.85,ENE,68,1.6,2.9,58,0.00,CLR,,0.00,WeatherDisplay:10.37,2013-12-04 06:21:00,
2013-12-04 01:26:00,39.7,26.6,29.85,ENE,68,2.0,2.6,59,0.00,CLR,,0.00,WeatherDisplay:10.37,2013-12-04 06:26:00,
2013-12-04 01:31:00,39.7,26.6,29.85,ESE,112,2.0,3.5,59,0.00,CLR,,0.00,WeatherDisplay:10.37,2013-12-04 06:31:00,
2013-12-04 01:36:00,39.7,26.6,29.83,ENE,68,3.6,4.9,59,0.00,CLR,,0.00,WeatherDisplay:10.37,2013-12-04 06:36:00,
2013-12-04 01:41:00,39.6,26.4,29.83,ENE,68,2.6,5.8,59,0.00,CLR,,0.00,WeatherDisplay:10.37,2013-12-04 06:41:00,
2013-12-04 01:46:00,39.6,26.4,29.83,NE,45,2.9,3.5,59,0.00,CLR,,0.00,WeatherDisplay:10.37,2013-12-04 06:46:00,
2013-12-04 01:51:00,39.7,26.6,29.83,ENE,68,3.1,4.6,59,0.00,CLR,,0.00,WeatherDisplay:10.37,2013-12-04 06:51:00,
2013-12-04 01:56:00,39.7,26.6,29.83,ESE,112,2.0,4.6,59,0.00,CLR,,0.00,WeatherDisplay:10.37,2013-12-04 06:56:00,
2013-12-04 02:01:00,39.7,26.6,29.83,ENE,68,3.1,5.9,59,0.00,CLR,,0.00,WeatherDisplay:10.37,2013-12-04 07:01:00,
2013-12-04 02:06:00,39.7,27.0,29.83,East,90,3.8,5.8,60,0.00,CLR,,0.00,WeatherDisplay:10.37,2013-12-04 07:06:00,
2013-12-04 02:11:00,39.7,27.0,29.83,ENE,68,4.3,4.6,60,0.00,CLR,,0.00,WeatherDisplay:10.37,2013-12-04 07:11:00,
2013-12-04 02:16:00,39.7,26.6,29.83,ESE,112,3.1,6.4,59,0.00,CLR,,0.00,WeatherDisplay:10.37,2013-12-04 07:16:00,
2013-12-04 02:21:00,39.7,27.0,29.83,East,90,2.9,4.6,60,0.00,CLR,,0.00,WeatherDisplay:10.37,2013-12-04 07:21:00,
2013-12-04 02:26:00,39.7,27.0,29.83,ESE,112,2.6,4.6,60,0.00,CLR,,0.00,WeatherDisplay:10.37,2013-12-04 07:26:00,
2013-12-04 02:31:00,39.7,27.0,29.83,ESE,112,2.4,2.6,60,0.00,CLR,,0.00,WeatherDisplay:10.37,2013-12-04 07:31:00,
2013-12-04 02:36:00,39.7,27.0,29.83,ESE,112,1.4,2.6,60,0.00,CLR,,0.00,WeatherDisplay:10.37,2013-12-04 07:36:00,
2013-12-04 02:41:00,39.9,27.1,29.83,ENE,68,1.2,2.4,60,0.00,CLR,,0.00,WeatherDisplay:10.37,2013-12-04 07:41:00,
2013-12-04 02:46:00,39.9,27.1,29.83,NE,45,2.6,3.5,60,0.00,CLR,,0.00,WeatherDisplay:10.37,2013-12-04 07:46:00,
2013-12-04 02:51:00,39.7,27.0,29.85,ENE,68,2.4,3.5,60,0.00,CLR,,0.00,WeatherDisplay:10.37,2013-12-04 07:51:00,
2013-12-04 02:56:00,39.7,27.0,29.85,ENE,68,1.4,3.5,60,0.00,CLR,,0.00,WeatherDisplay:10.37,2013-12-04 07:56:00,
2013-12-04 03:01:00,39.7,27.0,29.85,ESE,112,2.2,2.2,60,0.00,CLR,,0.00,WeatherDisplay:10.37,2013-12-04 08:01:00,
2013-12-04 03:06:00,39.7,27.0,29.85,ESE,112,1.6,3.5,60,0.00,CLR,,0.00,WeatherDisplay:10.37,2013-12-04 08:06:00,
2013-12-04 03:11:00,39.7,27.0,29.85,ESE,112,0.0,1.2,60,0.00,CLR,,0.00,WeatherDisplay:10.37,2013-12-04 08:11:00,
2013-12-04 03:17:00,39.7,27.0,29.85,ESE,112,1.6,3.3,60,0.00,CLR,,0.00,WeatherDisplay:10.37,2013-12-04 08:17:00,
2013-12-04 03:22:00,39.7,27.0,29.85,SSE,158,1.6,3.5,60,0.00,CLR,,0.00,WeatherDisplay:10.37,2013-12-04 08:22:00,
2013-12-04 03:28:00,39.7,27.0,29.85,East,90,1.2,1.2,60,0.00,CLR,,0.00,WeatherDisplay:10.37,2013-12-04 08:28:00,
2013-12-04 03:33:00,39.7,27.0,29.85,ENE,68,0.0,1.2,60,0.00,CLR,,0.00,WeatherDisplay:10.37,2013-12-04 08:33:00,
2013-12-04 03:38:00,39.7,27.0,29.85,NNE,22,0.0,1.2,60,0.00,CLR,,0.00,WeatherDisplay:10.37,2013-12-04 08:38:00,
2013-12-04 03:43:00,39.6,26.8,29.85,NNE,22,0.0,2.6,60,0.00,CLR,,0.00,WeatherDisplay:10.37,2013-12-04 08:43:00,
2013-12-04 03:48:00,39.6,26.8,29.85,NNE,22,0.0,0.0,60,0.00,CLR,,0.00,WeatherDisplay:10.37,2013-12-04 08:48:00,
2013-12-04 03:53:00,39.6,26.8,29.85,NE,45,0.0,0.0,60,0.00,CLR,,0.00,WeatherDisplay:10.37,2013-12-04 08:53:00,
2013-12-04 03:58:00,39.7,27.4,29.85,ESE,112,0.0,0.0,61,0.00,CLR,,0.00,WeatherDisplay:10.37,2013-12-04 08:58:00,
2013-12-04 04:03:00,39.7,27.4,29.85,ESE,112,0.0,0.0,61,0.00,CLR,,0.00,WeatherDisplay:10.37,2013-12-04 09:03:00,
2013-12-04 04:08:00,39.7,27.4,29.85,SE,135,0.0,0.0,61,0.00,CLR,,0.00,WeatherDisplay:10.37,2013-12-04 09:08:00,
2013-12-04 04:13:00,39.6,26.8,29.85,SSE,158,0.0,0.0,60,0.00,CLR,,0.00,WeatherDisplay:10.37,2013-12-04 09:13:00,
2013-12-04 04:18:00,39.4,26.6,29.85,East,90,0.0,0.0,60,0.00,CLR,,0.00,WeatherDisplay:10.37,2013-12-04 09:18:00,
2013-12-04 04:23:00,39.4,26.6,29.85,ENE,68,0.0,0.0,60,0.00,CLR,,0.00,WeatherDisplay:10.37,2013-12-04 09:23:00,
2013-12-04 04:28:00,39.4,26.6,29.85,ENE,68,1.2,2.3,60,0.00,CLR,,0.00,WeatherDisplay:10.37,2013-12-04 09:28:00,
2013-12-04 04:33:00,39.4,27.0,29.85,ENE,68,2.6,3.5,61,0.00,CLR,,0.00,WeatherDisplay:10.37,2013-12-04 09:33:00,
2013-12-04 04:38:00,39.4,27.0,29.85,ENE,68,1.2,2.3,61,0.00,CLR,,0.00,WeatherDisplay:10.37,2013-12-04 09:38:00,
2013-12-04 04:43:00,39.4,27.0,29.85,ENE,68,1.2,2.4,61,0.00,CLR,,0.00,WeatherDisplay:10.37,2013-12-04 09:43:00,
2013-12-04 04:48:00,39.6,27.2,29.85,ENE,68,1.2,2.3,61,0.00,CLR,,0.00,WeatherDisplay:10.37,2013-12-04 09:48:00,
2013-12-04 04:53:00,39.6,27.6,29.85,ENE,68,0.9,2.3,62,0.00,CLR,,0.00,WeatherDisplay:10.37,2013-12-04 09:53:00,
2013-12-04 04:58:00,39.6,27.6,29.85,NE,45,0.0,0.0,62,0.00,CLR,,0.00,WeatherDisplay:10.37,2013-12-04 09:58:00,
2013-12-04 05:03:00,39.6,27.6,29.85,NE,45,0.9,1.2,62,0.00,CLR,,0.00,WeatherDisplay:10.37,2013-12-04 10:03:00,
2013-12-04 05:08:00,39.6,27.6,29.85,ENE,68,2.9,3.5,62,0.00,CLR,,0.00,WeatherDisplay:10.37,2013-12-04 10:08:00,
2013-12-04 05:13:00,39.6,27.6,29.85,ENE,68,2.4,3.5,62,0.00,CLR,,0.00,WeatherDisplay:10.37,2013-12-04 10:13:00,
2013-12-04 05:18:00,39.7,27.8,29.85,ENE,68,0.9,1.2,62,0.00,CLR,,0.00,WeatherDisplay:10.37,2013-12-04 10:18:00,
2013-12-04 05:23:00,39.7,27.8,29.85,ENE,68,0.0,2.4,62,0.00,CLR,,0.00,WeatherDisplay:10.37,2013-12-04 10:23:00,
2013-12-04 05:28:00,39.9,27.9,29.85,ENE,68,1.6,3.1,62,0.00,CLR,,0.00,WeatherDisplay:10.37,2013-12-04 10:28:00,
2013-12-04 05:33:00,39.9,27.9,29.85,ENE,68,2.2,3.5,62,0.00,CLR,,0.00,WeatherDisplay:10.37,2013-12-04 10:33:00,
2013-12-04 05:38:00,39.9,27.9,29.88,NE,45,2.2,2.4,62,0.00,CLR,,0.00,WeatherDisplay:10.37,2013-12-04 10:38:00,
2013-12-04 05:43:00,39.9,28.3,29.88,NE,45,3.3,4.6,63,0.00,CLR,,0.00,WeatherDisplay:10.37,2013-12-04 10:43:00,
2013-12-04 05:48:00,39.9,28.3,29.88,ENE,68,3.3,4.0,63,0.00,CLR,,0.00,WeatherDisplay:10.37,2013-12-04 10:48:00,
2013-12-04 05:53:00,39.9,28.3,29.85,ENE,68,1.6,2.3,63,0.00,CLR,,0.00,WeatherDisplay:10.37,2013-12-04 10:53:00,
2013-12-04 05:58:00,40.1,28.5,29.85,ENE,68,0.9,2.3,63,0.00,CLR,,0.00,WeatherDisplay:10.37,2013-12-04 10:58:00,
2013-12-04 06:03:00,40.3,28.7,29.85,ENE,68,0.9,2.3,63,0.00,CLR,,0.00,WeatherDisplay:10.37,2013-12-04 11:03:00,
2013-12-04 06:08:00,40.3,28.7,29.88,ENE,68,1.4,2.3,63,0.00,CLR,,0.00,WeatherDisplay:10.37,2013-12-04 11:08:00,
2013-12-04 06:13:00,40.3,28.7,29.88,ENE,68,0.0,0.0,63,0.00,CLR,,0.00,WeatherDisplay:10.37,2013-12-04 11:13:00,
2013-12-04 06:18:00,40.3,28.7,29.88,ENE,68,1.6,2.3,63,0.00,CLR,,0.00,WeatherDisplay:10.37,2013-12-04 11:18:00,
2013-12-04 06:23:00,40.3,28.7,29.88,NNE,22,1.6,2.3,63,0.00,CLR,,0.00,WeatherDisplay:10.37,2013-12-04 11:23:00,
2013-12-04 06:28:00,40.5,28.8,29.88,NE,45,0.0,2.3,63,0.00,CLR,,0.00,WeatherDisplay:10.37,2013-12-04 11:28:00,
2013-12-04 06:33:00,40.5,28.8,29.88,ENE,68,3.1,3.5,63,0.00,CLR,,0.00,WeatherDisplay:10.37,2013-12-04 11:33:00,
2013-12-04 06:38:00,40.5,28.8,29.88,NE,45,0.9,2.3,63,0.00,CLR,,0.00,WeatherDisplay:10.37,2013-12-04 11:38:00,
2013-12-04 06:43:00,40.5,28.8,29.88,NE,45,0.0,1.2,63,0.00,CLR,,0.00,WeatherDisplay:10.37,2013-12-04 11:43:00,
2013-12-04 06:48:00,40.5,29.2,29.88,ENE,68,1.2,2.9,64,0.00,CLR,,0.00,WeatherDisplay:10.37,2013-12-04 11:48:00,
2013-12-04 06:53:00,40.6,29.4,29.85,ENE,68,2.0,2.6,64,0.00,CLR,,0.00,WeatherDisplay:10.37,2013-12-04 11:53:00,
2013-12-04 06:58:00,40.6,29.0,29.85,ENE,68,2.0,3.6,63,0.00,CLR,,0.00,WeatherDisplay:10.37,2013-12-04 11:58:00,
2013-12-04 07:03:00,40.6,29.4,29.85,ENE,68,2.6,3.6,64,0.00,CLR,,0.00,WeatherDisplay:10.37,2013-12-04 12:03:00,
2013-12-04 07:08:00,40.6,29.4,29.88,ENE,68,3.6,4.0,64,0.00,CLR,,0.00,WeatherDisplay:10.37,2013-12-04 12:08:00,
2013-12-04 07:13:00,40.6,29.4,29.88,ENE,68,2.4,3.6,64,0.00,CLR,,0.00,WeatherDisplay:10.37,2013-12-04 12:13:00,
2013-12-04 07:18:00,40.6,29.4,29.88,ENE,68,2.9,4.6,64,0.00,CLR,,0.00,WeatherDisplay:10.37,2013-12-04 12:18:00,
2013-12-04 07:23:00,40.6,29.4,29.88,ENE,68,2.0,3.5,64,0.00,CLR,,0.00,WeatherDisplay:10.37,2013-12-04 12:23:00,
2013-12-04 07:28:00,40.6,29.4,29.88,East,90,2.9,3.5,64,0.00,CLR,,0.00,WeatherDisplay:10.37,2013-12-04 12:28:00,
2013-12-04 07:33:00,40.8,29.6,29.88,ESE,112,3.1,3.5,64,0.00,CLR,,0.00,WeatherDisplay:10.37,2013-12-04 12:33:00,
2013-12-04 07:38:00,40.8,29.6,29.88,East,90,2.2,3.5,64,0.00,CLR,,0.00,WeatherDisplay:10.37,2013-12-04 12:38:00,
2013-12-04 07:43:00,41.0,29.7,29.88,ESE,112,0.9,2.3,64,0.00,CLR,,0.00,WeatherDisplay:10.37,2013-12-04 12:43:00,
2013-12-04 07:48:00,41.0,29.7,29.88,ENE,68,2.2,2.3,64,0.00,CLR,,0.00,WeatherDisplay:10.37,2013-12-04 12:48:00,
2013-12-04 07:53:00,41.0,29.7,29.88,ENE,68,0.9,1.6,64,0.00,CLR,,0.00,WeatherDisplay:10.37,2013-12-04 12:53:00,
2013-12-04 07:58:00,41.0,29.7,29.88,ENE,68,1.4,1.6,64,0.00,CLR,,0.00,WeatherDisplay:10.37,2013-12-04 12:58:00,
2013-12-04 08:03:00,41.2,29.5,29.88,ENE,68,1.6,3.5,63,0.00,CLR,,0.00,WeatherDisplay:10.37,2013-12-04 13:03:00,
2013-12-04 08:08:00,41.2,29.5,29.88,ENE,68,2.2,4.3,63,0.00,CLR,,0.00,WeatherDisplay:10.37,2013-12-04 13:08:00,
2013-12-04 08:13:00,41.2,29.5,29.88,ENE,68,2.6,3.8,63,0.00,CLR,,0.00,WeatherDisplay:10.37,2013-12-04 13:13:00,
2013-12-04 08:18:00,41.2,29.5,29.88,NE,45,3.8,4.6,63,0.00,CLR,,0.00,WeatherDisplay:10.37,2013-12-04 13:18:00,
2013-12-04 08:23:00,41.2,29.5,29.85,NNE,22,2.6,3.5,63,0.00,CLR,,0.00,WeatherDisplay:10.37,2013-12-04 13:23:00,
2013-12-04 08:28:00,41.2,29.9,29.85,ENE,68,2.2,2.4,64,0.00,CLR,,0.00,WeatherDisplay:10.37,2013-12-04 13:28:00,
2013-12-04 08:33:00,41.2,29.9,29.85,ENE,68,1.4,2.3,64,0.00,CLR,,0.00,WeatherDisplay:10.37,2013-12-04 13:33:00,
2013-12-04 08:38:00,41.4,30.1,29.85,ENE,68,2.4,3.5,64,0.00,CLR,,0.00,WeatherDisplay:10.37,2013-12-04 13:38:00,
2013-12-04 08:43:00,41.4,30.1,29.85,ENE,68,0.9,1.2,64,0.00,CLR,,0.00,WeatherDisplay:10.37,2013-12-04 13:43:00,
2013-12-04 08:48:00,41.5,30.3,29.85,NE,45,0.0,2.3,64,0.00,CLR,,0.00,WeatherDisplay:10.37,2013-12-04 13:48:00,
2013-12-04 08:53:00,41.5,30.3,29.88,NE,45,2.0,3.5,64,0.00,CLR,,0.00,WeatherDisplay:10.37,2013-12-04 13:53:00,
2013-12-04 08:58:00,41.7,30.4,29.88,ENE,68,0.0,2.3,64,0.00,CLR,,0.00,WeatherDisplay:10.37,2013-12-04 13:58:00,
2013-12-04 09:03:00,41.7,30.4,29.88,ENE,68,1.6,2.6,64,0.00,CLR,,0.00,WeatherDisplay:10.37,2013-12-04 14:03:00,
2013-12-04 09:08:00,41.9,30.6,29.88,East,90,2.0,3.5,64,0.00,CLR,,0.00,WeatherDisplay:10.37,2013-12-04 14:08:00,
2013-12-04 09:13:00,41.9,30.6,29.88,ENE,68,1.6,3.5,64,0.00,CLR,,0.00,WeatherDisplay:10.37,2013-12-04 14:13:00,
2013-12-04 09:18:00,42.1,30.8,29.88,ESE,112,2.6,3.6,64,0.00,CLR,,0.00,WeatherDisplay:10.37,2013-12-04 14:18:00,
2013-12-04 09:23:00,42.1,30.8,29.88,East,90,2.2,4.6,64,0.00,CLR,,0.00,WeatherDisplay:10.37,2013-12-04 14:23:00,
2013-12-04 09:28:00,42.3,30.9,29.88,East,90,2.2,3.5,64,0.00,CLR,,0.00,WeatherDisplay:10.37,2013-12-04 14:28:00,
2013-12-04 09:33:00,42.3,30.9,29.88,NE,45,2.6,3.5,64,0.00,CLR,,0.00,WeatherDisplay:10.37,2013-12-04 14:33:00,
2013-12-04 09:38:00,42.4,31.1,29.88,ENE,68,2.9,4.6,64,0.00,CLR,,0.00,WeatherDisplay:10.37,2013-12-04 14:38:00,
2013-12-04 09:43:00,42.4,31.1,29.88,East,90,2.6,4.6,64,0.00,CLR,,0.00,WeatherDisplay:10.37,2013-12-04 14:43:00,
2013-12-04 09:48:00,42.6,31.3,29.88,East,90,2.6,5.8,64,0.00,CLR,,0.00,WeatherDisplay:10.37,2013-12-04 14:48:00,
2013-12-04 09:53:00,42.8,31.5,29.91,ESE,112,3.8,4.6,64,0.00,CLR,,0.00,WeatherDisplay:10.37,2013-12-04 14:53:00,
2013-12-04 09:58:00,43.0,31.6,29.91,SE,135,4.0,4.6,64,0.00,CLR,,0.00,WeatherDisplay:10.37,2013-12-04 14:58:00,
2013-12-04 10:03:00,43.3,32.4,29.91,ESE,112,2.9,5.8,65,0.00,CLR,,0.00,WeatherDisplay:10.37,2013-12-04 15:03:00,
2013-12-04 10:08:00,43.5,32.5,29.88,ESE,112,2.6,4.9,65,0.00,CLR,,0.00,WeatherDisplay:10.37,2013-12-04 15:08:00,
2013-12-04 10:13:00,43.7,32.7,29.88,ENE,68,2.9,5.4,65,0.00,CLR,,0.00,WeatherDisplay:10.37,2013-12-04 15:13:00,
2013-12-04 10:18:00,44.1,33.0,29.88,ESE,112,3.3,3.5,65,0.00,CLR,,0.00,WeatherDisplay:10.37,2013-12-04 15:18:00,
2013-12-04 10:23:00,44.2,33.2,29.88,ESE,112,2.6,3.5,65,0.00,CLR,,0.00,WeatherDisplay:10.37,2013-12-04 15:23:00,
2013-12-04 10:28:00,44.6,33.6,29.88,ESE,112,1.4,2.3,65,0.00,CLR,,0.00,WeatherDisplay:10.37,2013-12-04 15:28:00,
2013-12-04 10:33:00,44.8,33.7,29.88,ESE,112,2.9,3.5,65,0.00,CLR,,0.00,WeatherDisplay:10.37,2013-12-04 15:33:00,
2013-12-04 10:38:00,45.1,34.1,29.88,ESE,112,3.8,5.6,65,0.00,CLR,,0.00,WeatherDisplay:10.37,2013-12-04 15:38:00,
2013-12-04 10:43:00,45.3,34.2,29.88,ESE,112,1.6,3.1,65,0.00,CLR,,0.00,WeatherDisplay:10.37,2013-12-04 15:43:00,
2013-12-04 10:48:00,45.7,34.6,29.88,SSE,158,3.1,4.6,65,0.00,CLR,,0.00,WeatherDisplay:10.37,2013-12-04 15:48:00,
2013-12-04 10:53:00,45.9,34.4,29.88,ESE,112,2.4,4.6,64,0.00,CLR,,0.00,WeatherDisplay:10.37,2013-12-04 15:53:00,
2013-12-04 10:58:00,46.0,34.5,29.88,ESE,112,2.2,3.5,64,0.00,CLR,,0.00,WeatherDisplay:10.37,2013-12-04 15:58:00,
2013-12-04 11:03:00,46.2,34.7,29.88,SSE,158,2.0,4.6,64,0.00,CLR,,0.00,WeatherDisplay:10.37,2013-12-04 16:03:00,
2013-12-04 11:08:00,46.4,34.9,29.88,ESE,112,3.1,3.5,64,0.00,CLR,,0.00,WeatherDisplay:10.37,2013-12-04 16:08:00,
2013-12-04 11:13:00,46.6,34.7,29.88,ESE,112,2.2,3.5,63,0.00,CLR,,0.00,WeatherDisplay:10.37,2013-12-04 16:13:00,
2013-12-04 11:19:00,46.8,34.8,29.88,SE,135,2.9,4.7,63,0.00,CLR,,0.00,WeatherDisplay:10.37,2013-12-04 16:19:00,
2013-12-04 11:24:00,46.9,35.0,29.85,SE,135,2.2,3.5,63,0.00,CLR,,0.00,WeatherDisplay:10.37,2013-12-04 16:24:00,
2013-12-04 11:29:00,47.1,35.2,29.85,ESE,112,3.8,4.6,63,0.00,CLR,,0.00,WeatherDisplay:10.37,2013-12-04 16:29:00,
2013-12-04 11:34:00,47.3,35.3,29.85,ESE,112,2.0,2.4,63,0.00,CLR,,0.00,WeatherDisplay:10.37,2013-12-04 16:34:00,
2013-12-04 11:39:00,47.5,35.5,29.85,ESE,112,3.3,3.3,63,0.00,CLR,,0.00,WeatherDisplay:10.37,2013-12-04 16:39:00,
2013-12-04 11:44:00,47.7,35.3,29.85,ESE,112,2.2,5.8,62,0.00,CLR,,0.00,WeatherDisplay:10.37,2013-12-04 16:44:00,
2013-12-04 11:49:00,47.8,35.4,29.85,ESE,112,4.3,4.6,62,0.00,CLR,,0.00,WeatherDisplay:10.37,2013-12-04 16:49:00,
2013-12-04 11:54:00,48.0,35.6,29.83,East,90,4.3,5.8,62,0.00,CLR,,0.00,WeatherDisplay:10.37,2013-12-04 16:54:00,
2013-12-04 11:59:00,48.2,35.4,29.83,ESE,112,2.9,3.5,61,0.00,CLR,,0.00,WeatherDisplay:10.37,2013-12-04 16:59:00,
2013-12-04 12:04:00,48.4,35.5,29.83,ENE,68,3.1,4.6,61,0.00,CLR,,0.00,WeatherDisplay:10.37,2013-12-04 17:04:00,
2013-12-04 12:09:00,48.6,35.3,29.80,ENE,68,3.3,4.6,60,0.00,CLR,,0.00,WeatherDisplay:10.37,2013-12-04 17:09:00,
2013-12-04 12:14:00,48.6,35.3,29.80,ENE,68,4.7,6.9,60,0.00,CLR,,0.00,WeatherDisplay:10.37,2013-12-04 17:14:00,
2013-12-04 12:19:00,48.7,35.5,29.80,ESE,112,4.5,5.8,60,0.00,CLR,,0.00,WeatherDisplay:10.37,2013-12-04 17:19:00,
2013-12-04 12:24:00,48.7,35.5,29.83,ENE,68,3.6,5.8,60,0.00,CLR,,0.00,WeatherDisplay:10.37,2013-12-04 17:24:00,
2013-12-04 12:29:00,49.1,35.8,29.83,ESE,112,4.0,4.6,60,0.00,CLR,,0.00,WeatherDisplay:10.37,2013-12-04 17:29:00,
2013-12-04 12:34:00,49.3,36.0,29.83,ESE,112,4.3,5.8,60,0.00,CLR,,0.00,WeatherDisplay:10.37,2013-12-04 17:34:00,
2013-12-04 12:39:00,49.5,36.1,29.83,ESE,112,4.9,6.9,60,0.00,CLR,,0.00,WeatherDisplay:10.37,2013-12-04 17:39:00,
2013-12-04 12:44:00,49.6,36.3,29.83,ESE,112,5.9,8.1,60,0.00,CLR,,0.00,WeatherDisplay:10.37,2013-12-04 17:44:00,
2013-12-04 12:49:00,49.8,36.1,29.83,ESE,112,3.3,4.6,59,0.00,CLR,,0.00,WeatherDisplay:10.37,2013-12-04 17:49:00,
2013-12-04 12:54:00,50.0,36.2,29.83,SSE,158,2.6,8.5,59,0.00,CLR,,0.00,WeatherDisplay:10.37,2013-12-04 17:54:00,
2013-12-04 12:59:00,50.2,36.4,29.83,SSE,158,6.4,7.4,59,0.00,CLR,,0.00,WeatherDisplay:10.37,2013-12-04 17:59:00,
2013-12-04 13:04:00,50.4,36.6,29.83,SE,135,4.0,6.9,59,0.00,CLR,,0.00,WeatherDisplay:10.37,2013-12-04 18:04:00,
2013-12-04 13:09:00,50.7,36.9,29.83,SE,135,4.7,6.0,59,0.00,CLR,,0.00,WeatherDisplay:10.37,2013-12-04 18:09:00,
2013-12-04 13:14:00,50.9,37.1,29.83,SE,135,3.1,4.6,59,0.00,CLR,,0.00,WeatherDisplay:10.37,2013-12-04 18:14:00,
2013-12-04 13:19:00,51.1,37.2,29.83,SSE,158,7.1,8.1,59,0.00,CLR,,0.00,WeatherDisplay:10.37,2013-12-04 18:19:00,
2013-12-04 13:24:00,51.3,37.4,29.83,SE,135,6.2,6.9,59,0.00,CLR,,0.00,WeatherDisplay:10.37,2013-12-04 18:24:00,
2013-12-04 13:29:00,51.4,37.1,29.83,SSE,158,7.8,10.4,58,0.00,CLR,,0.00,WeatherDisplay:10.37,2013-12-04 18:29:00,
2013-12-04 13:34:00,51.6,37.3,29.83,ESE,112,4.3,5.8,58,0.00,CLR,,0.00,WeatherDisplay:10.37,2013-12-04 18:34:00,
2013-12-04 13:39:00,51.6,37.3,29.80,SSW,202,5.9,9.2,58,0.00,CLR,,0.00,WeatherDisplay:10.37,2013-12-04 18:39:00,
2013-12-04 13:44:00,51.6,36.9,29.80,SE,135,4.5,7.6,57,0.00,CLR,,0.00,WeatherDisplay:10.37,2013-12-04 18:44:00,
2013-12-04 13:49:00,51.8,37.0,29.80,SE,135,4.7,8.1,57,0.00,CLR,,0.00,WeatherDisplay:10.37,2013-12-04 18:49:00,
2013-12-04 13:54:00,51.8,37.0,29.80,SE,135,6.7,10.4,57,0.00,CLR,,0.00,WeatherDisplay:10.37,2013-12-04 18:54:00,
2013-12-04 13:59:00,52.0,37.2,29.80,SE,135,5.9,5.9,57,0.00,CLR,,0.00,WeatherDisplay:10.37,2013-12-04 18:59:00,
2013-12-04 14:04:00,52.0,37.2,29.80,ESE,112,6.7,8.1,57,0.00,CLR,,0.00,WeatherDisplay:10.37,2013-12-04 19:04:00,
2013-12-04 14:09:00,52.0,37.2,29.77,ESE,112,6.2,8.7,57,0.00,CLR,,0.00,WeatherDisplay:10.37,2013-12-04 19:09:00,
2013-12-04 14:14:00,52.2,37.4,29.77,SE,135,4.7,5.8,57,0.00,CLR,,0.00,WeatherDisplay:10.37,2013-12-04 19:14:00,
2013-12-04 14:19:00,52.2,37.4,29.77,ESE,112,5.6,6.9,57,0.00,CLR,,0.00,WeatherDisplay:10.37,2013-12-04 19:19:00,
2013-12-04 14:24:00,52.2,37.4,29.77,SSE,158,4.7,9.2,57,0.00,CLR,,0.00,WeatherDisplay:10.37,2013-12-04 19:24:00,
2013-12-04 14:29:00,52.2,37.4,29.77,SE,135,5.9,9.2,57,0.00,CLR,,0.00,WeatherDisplay:10.37,2013-12-04 19:29:00,
2013-12-04 14:34:00,52.2,36.9,29.77,SE,135,6.0,10.4,56,0.00,CLR,,0.00,WeatherDisplay:10.37,2013-12-04 19:34:00,
2013-12-04 14:39:00,52.2,36.9,29.77,East,90,4.3,6.9,56,0.00,CLR,,0.00,WeatherDisplay:10.37,2013-12-04 19:39:00,
2013-12-04 14:44:00,52.2,36.9,29.77,ESE,112,5.6,8.1,56,0.00,CLR,,0.00,WeatherDisplay:10.37,2013-12-04 19:44:00,
2013-12-04 14:49:00,52.3,37.1,29.77,ESE,112,4.9,6.9,56,0.00,CLR,,0.00,WeatherDisplay:10.37,2013-12-04 19:49:00,
2013-12-04 14:54:00,52.3,37.1,29.74,ESE,112,4.9,5.9,56,0.00,CLR,,0.00,WeatherDisplay:10.37,2013-12-04 19:54:00,
2013-12-04 14:59:00,52.3,37.1,29.74,SE,135,6.0,6.9,56,0.00,CLR,,0.00,WeatherDisplay:10.37,2013-12-04 19:59:00,
2013-12-04 15:04:00,52.2,36.9,29.74,ESE,112,4.5,7.1,56,0.00,CLR,,0.00,WeatherDisplay:10.37,2013-12-04 20:04:00,
2013-12-04 15:09:00,52.2,36.9,29.77,ESE,112,4.9,5.8,56,0.00,CLR,,0.00,WeatherDisplay:10.37,2013-12-04 20:09:00,
2013-12-04 15:14:00,52.2,37.4,29.77,SE,135,4.7,9.2,57,0.00,CLR,,0.00,WeatherDisplay:10.37,2013-12-04 20:14:00,
2013-12-04 15:19:00,52.2,37.4,29.77,SE,135,4.7,5.9,57,0.00,CLR,,0.00,WeatherDisplay:10.37,2013-12-04 20:19:00,
2013-12-04 15:24:00,52.2,37.4,29.77,ESE,112,4.9,6.9,57,0.00,CLR,,0.00,WeatherDisplay:10.37,2013-12-04 20:24:00,
2013-12-04 15:29:00,52.2,37.4,29.77,ESE,112,6.2,6.9,57,0.00,CLR,,0.00,WeatherDisplay:10.37,2013-12-04 20:29:00,
2013-12-04 15:34:00,52.2,37.4,29.77,SE,135,6.7,8.1,57,0.00,CLR,,0.00,WeatherDisplay:10.37,2013-12-04 20:34:00,
2013-12-04 15:39:00,52.2,37.4,29.77,ESE,112,4.7,8.1,57,0.00,CLR,,0.00,WeatherDisplay:10.37,2013-12-04 20:39:00,
2013-12-04 15:44:00,52.2,37.4,29.77,ESE,112,4.3,5.8,57,0.00,CLR,,0.00,WeatherDisplay:10.37,2013-12-04 20:44:00,
2013-12-04 15:49:00,52.2,37.4,29.77,ESE,112,6.4,9.2,57,0.00,CLR,,0.00,WeatherDisplay:10.37,2013-12-04 20:49:00,
2013-12-04 15:54:00,52.2,37.4,29.80,East,90,6.0,8.1,57,0.00,CLR,,0.00,WeatherDisplay:10.37,2013-12-04 20:54:00,
2013-12-04 15:59:00,52.2,37.4,29.80,East,90,4.0,6.9,57,0.00,CLR,,0.00,WeatherDisplay:10.37,2013-12-04 20:59:00,
2013-12-04 16:04:00,52.0,37.2,29.80,ESE,112,4.3,6.0,57,0.00,CLR,,0.00,WeatherDisplay:10.37,2013-12-04 21:04:00,
2013-12-04 16:09:00,52.0,37.2,29.77,ESE,112,6.7,8.1,57,0.00,CLR,,0.00,WeatherDisplay:10.37,2013-12-04 21:09:00,
2013-12-04 16:14:00,52.0,37.2,29.77,ESE,112,4.3,5.8,57,0.00,CLR,,0.00,WeatherDisplay:10.37,2013-12-04 21:14:00,
2013-12-04 16:19:00,51.8,37.0,29.77,ENE,68,5.9,10.4,57,0.00,CLR,,0.00,WeatherDisplay:10.37,2013-12-04 21:19:00,
2013-12-04 16:24:00,51.8,37.0,29.77,East,90,6.9,8.5,57,0.00,CLR,,0.00,WeatherDisplay:10.37,2013-12-04 21:24:00,
2013-12-04 16:29:00,51.8,37.0,29.77,ESE,112,6.7,8.1,57,0.00,CLR,,0.00,WeatherDisplay:10.37,2013-12-04 21:29:00,
2013-12-04 16:34:00,51.8,37.0,29.77,ESE,112,9.4,12.1,57,0.00,CLR,,0.00,WeatherDisplay:10.37,2013-12-04 21:34:00,
2013-12-04 16:39:00,51.8,37.0,29.74,ESE,112,4.5,5.8,57,0.00,CLR,,0.00,WeatherDisplay:10.37,2013-12-04 21:39:00,
2013-12-04 16:44:00,51.6,37.3,29.74,ESE,112,5.9,9.2,58,0.00,CLR,,0.00,WeatherDisplay:10.37,2013-12-04 21:44:00,
2013-12-04 16:49:00,51.6,37.3,29.74,ESE,112,4.7,6.9,58,0.00,CLR,,0.00,WeatherDisplay:10.37,2013-12-04 21:49:00,
2013-12-04 16:54:00,51.6,37.3,29.74,ESE,112,9.0,11.5,58,0.00,CLR,,0.00,WeatherDisplay:10.37,2013-12-04 21:54:00,
2013-12-04 16:59:00,51.6,37.3,29.74,East,90,6.9,9.2,58,0.00,CLR,,0.00,WeatherDisplay:10.37,2013-12-04 21:59:00,
2013-12-04 17:04:00,51.6,37.3,29.74,SSE,158,7.1,10.2,58,0.00,CLR,,0.00,WeatherDisplay:10.37,2013-12-04 22:04:00,
2013-12-04 17:09:00,51.6,37.3,29.74,ESE,112,6.7,11.5,58,0.00,CLR,,0.00,WeatherDisplay:10.37,2013-12-04 22:09:00,
2013-12-04 17:14:00,51.6,37.3,29.74,ESE,112,6.9,9.2,58,0.00,CLR,,0.00,WeatherDisplay:10.37,2013-12-04 22:14:00,
2013-12-04 17:19:00,51.6,37.3,29.74,SSE,158,7.1,8.1,58,0.00,CLR,,0.00,WeatherDisplay:10.37,2013-12-04 22:19:00,
2013-12-04 17:24:00,51.6,37.3,29.74,ESE,112,6.0,9.2,58,0.00,CLR,,0.00,WeatherDisplay:10.37,2013-12-04 22:24:00,
2013-12-04 17:29:00,51.6,37.3,29.74,ESE,112,9.0,12.7,58,0.00,CLR,,0.00,WeatherDisplay:10.37,2013-12-04 22:29:00,
2013-12-04 17:34:00,51.6,37.3,29.74,ESE,112,7.8,9.7,58,0.00,CLR,,0.00,WeatherDisplay:10.37,2013-12-04 22:34:00,
2013-12-04 17:39:00,51.6,37.3,29.71,ESE,112,6.0,8.1,58,0.00,CLR,,0.00,WeatherDisplay:10.37,2013-12-04 22:39:00,
2013-12-04 17:44:00,51.6,37.3,29.71,ESE,112,7.4,8.1,58,0.00,CLR,,0.00,WeatherDisplay:10.37,2013-12-04 22:44:00,
2013-12-04 17:49:00,51.4,37.1,29.71,SE,135,7.4,8.1,58,0.00,CLR,,0.00,WeatherDisplay:10.37,2013-12-04 22:49:00,
2013-12-04 17:54:00,51.4,37.6,29.71,SSE,158,9.8,11.5,59,0.00,CLR,,0.00,WeatherDisplay:10.37,2013-12-04 22:54:00,
2013-12-04 17:59:00,51.6,37.7,29.71,SE,135,9.8,10.4,59,0.00,CLR,,0.00,WeatherDisplay:10.37,2013-12-04 22:59:00,
2013-12-04 18:04:00,51.6,37.7,29.71,SE,135,7.8,8.7,59,0.00,CLR,,0.00,WeatherDisplay:10.37,2013-12-04 23:04:00,
2013-12-04 18:09:00,51.6,37.7,29.71,SSE,158,10.7,12.7,59,0.00,CLR,,0.00,WeatherDisplay:10.37,2013-12-04 23:09:00,
2013-12-04 18:14:00,51.6,37.7,29.71,SE,135,7.8,11.5,59,0.00,CLR,,0.00,WeatherDisplay:10.37,2013-12-04 23:14:00,
2013-12-04 18:19:00,51.6,37.7,29.71,SSE,158,6.9,10.4,59,0.00,CLR,,0.00,WeatherDisplay:10.37,2013-12-04 23:19:00,
2013-12-04 18:24:00,51.4,37.6,29.71,SE,135,7.4,8.1,59,0.00,CLR,,0.00,WeatherDisplay:10.37,2013-12-04 23:24:00,
2013-12-04 18:29:00,51.4,37.6,29.71,SSE,158,7.1,8.1,59,0.00,CLR,,0.00,WeatherDisplay:10.37,2013-12-04 23:29:00,
2013-12-04 18:34:00,51.6,37.7,29.71,ESE,112,6.9,8.1,59,0.00,CLR,,0.00,WeatherDisplay:10.37,2013-12-04 23:34:00,
2013-12-04 18:39:00,51.6,37.7,29.71,SSE,158,7.4,9.2,59,0.00,CLR,,0.00,WeatherDisplay:10.37,2013-12-04 23:39:00,
2013-12-04 18:44:00,51.6,38.2,29.71,SSE,158,7.6,10.4,60,0.00,CLR,,0.00,WeatherDisplay:10.37,2013-12-04 23:44:00,
2013-12-04 18:49:00,51.6,38.2,29.71,SE,135,7.8,9.2,60,0.00,CLR,,0.00,WeatherDisplay:10.37,2013-12-04 23:49:00,
2013-12-04 18:54:00,51.6,38.2,29.71,ESE,112,9.0,12.7,60,0.00,CLR,,0.00,WeatherDisplay:10.37,2013-12-04 23:54:00,
2013-12-04 18:59:00,51.8,38.3,29.71,SSE,158,7.1,10.4,60,0.00,CLR,,0.00,WeatherDisplay:10.37,2013-12-04 23:59:00,
2013-12-04 19:04:00,51.8,38.3,29.71,SSE,158,7.1,9.2,60,0.00,CLR,,0.00,WeatherDisplay:10.37,2013-12-05 00:04:00,
2013-12-04 19:09:00,51.8,38.3,29.71,SE,135,6.0,11.5,60,0.00,CLR,,0.00,WeatherDisplay:10.37,2013-12-05 00:09:00,
2013-12-04 19:14:00,52.0,38.5,29.71,SE,135,7.8,9.2,60,0.00,CLR,,0.00,WeatherDisplay:10.37,2013-12-05 00:14:00,
2013-12-04 19:19:00,52.0,38.5,29.71,SE,135,7.4,9.2,60,0.00,CLR,,0.00,WeatherDisplay:10.37,2013-12-05 00:19:00,
2013-12-04 19:24:00,52.0,38.5,29.71,SSE,158,6.4,8.1,60,0.00,CLR,,0.00,WeatherDisplay:10.37,2013-12-05 00:24:00,
2013-12-04 19:29:00,52.2,38.7,29.71,SSE,158,10.0,12.7,60,0.00,CLR,,0.00,WeatherDisplay:10.37,2013-12-05 00:29:00,
2013-12-04 19:34:00,52.2,38.7,29.71,SE,135,6.9,7.4,60,0.00,CLR,,0.00,WeatherDisplay:10.37,2013-12-05 00:34:00,
2013-12-04 19:39:00,52.2,38.7,29.71,SE,135,6.9,8.1,60,0.00,CLR,,0.00,WeatherDisplay:10.37,2013-12-05 00:39:00,
2013-12-04 19:44:00,52.3,38.9,29.71,SE,135,7.6,10.4,60,0.00,CLR,,0.00,WeatherDisplay:10.37,2013-12-05 00:44:00,
2013-12-04 19:49:00,52.3,39.3,29.71,SSE,158,6.7,11.5,61,0.00,CLR,,0.00,WeatherDisplay:10.37,2013-12-05 00:49:00,
2013-12-04 19:54:00,52.3,39.3,29.71,SE,135,6.7,9.2,61,0.00,CLR,,0.00,WeatherDisplay:10.37,2013-12-05 00:54:00,
2013-12-04 19:59:00,52.3,39.3,29.71,SSE,158,7.8,9.2,61,0.00,CLR,,0.00,WeatherDisplay:10.37,2013-12-05 00:59:00,
2013-12-04 20:04:00,52.3,39.3,29.71,SSE,158,7.1,9.7,61,0.00,CLR,,0.00,WeatherDisplay:10.37,2013-12-05 01:04:00,
2013-12-04 20:09:00,52.3,39.3,29.68,SSE,158,8.1,12.7,61,0.00,CLR,,0.00,WeatherDisplay:10.37,2013-12-05 01:09:00,
2013-12-04 20:14:00,52.5,39.5,29.68,SSE,158,7.1,9.2,61,0.00,CLR,,0.00,WeatherDisplay:10.37,2013-12-05 01:14:00,
2013-12-04 20:19:00,52.5,39.5,29.68,SSE,158,9.7,10.9,61,0.00,CLR,,0.00,WeatherDisplay:10.37,2013-12-05 01:19:00,
2013-12-04 20:24:00,52.5,39.5,29.71,SE,135,7.8,9.2,61,0.00,CLR,,0.00,WeatherDisplay:10.37,2013-12-05 01:24:00,
2013-12-04 20:29:00,52.5,39.5,29.71,SSE,158,6.9,9.2,61,0.00,CLR,,0.00,WeatherDisplay:10.37,2013-12-05 01:29:00,
2013-12-04 20:34:00,52.5,39.5,29.71,SSE,158,6.2,9.2,61,0.00,CLR,,0.00,WeatherDisplay:10.37,2013-12-05 01:34:00,
2013-12-04 20:39:00,52.5,39.5,29.71,SSE,158,6.2,9.2,61,0.00,CLR,,0.00,WeatherDisplay:10.37,2013-12-05 01:39:00,
2013-12-04 20:44:00,52.5,39.5,29.71,SSE,158,6.7,8.1,61,0.00,CLR,,0.00,WeatherDisplay:10.37,2013-12-05 01:44:00,
2013-12-04 20:49:00,52.5,39.5,29.71,SE,135,6.7,7.6,61,0.00,CLR,,0.00,WeatherDisplay:10.37,2013-12-05 01:49:00,
2013-12-04 20:54:00,52.5,39.5,29.68,SE,135,7.8,11.5,61,0.00,CLR,,0.00,WeatherDisplay:10.37,2013-12-05 01:54:00,
2013-12-04 20:59:00,52.5,39.5,29.68,SSE,158,7.6,10.4,61,0.00,CLR,,0.00,WeatherDisplay:10.37,2013-12-05 01:59:00,
2013-12-04 21:04:00,52.5,39.5,29.68,SE,135,6.2,8.1,61,0.00,CLR,,0.00,WeatherDisplay:10.37,2013-12-05 02:04:00,
2013-12-04 21:09:00,52.5,39.5,29.71,SSE,158,5.6,8.1,61,0.00,CLR,,0.00,WeatherDisplay:10.37,2013-12-05 02:09:00,
2013-12-04 21:14:00,52.5,39.5,29.71,SSE,158,6.0,6.9,61,0.00,CLR,,0.00,WeatherDisplay:10.37,2013-12-05 02:14:00,
2013-12-04 21:19:00,52.5,39.5,29.71,West,270,2.4,4.6,61,0.00,CLR,,0.00,WeatherDisplay:10.37,2013-12-05 02:19:00,
2013-12-04 21:24:00,52.7,40.0,29.71,NNW,338,5.9,5.9,62,0.00,CLR,,0.00,WeatherDisplay:10.37,2013-12-05 02:24:00,
2013-12-04 21:29:00,52.7,40.0,29.71,West,270,6.2,9.2,62,0.00,CLR,,0.00,WeatherDisplay:10.37,2013-12-05 02:29:00,
2013-12-04 21:34:00,52.9,40.2,29.71,SSE,158,7.6,9.2,62,0.00,CLR,,0.00,WeatherDisplay:10.37,2013-12-05 02:34:00,
2013-12-04 21:39:00,53.1,40.8,29.71,SSW,202,6.4,9.2,63,0.00,CLR,,0.00,WeatherDisplay:10.37,2013-12-05 02:39:00,
2013-12-04 21:44:00,53.2,41.4,29.71,SSW,202,9.0,12.7,64,0.00,CLR,,0.00,WeatherDisplay:10.37,2013-12-05 02:44:00,
2013-12-04 21:49:00,53.6,41.7,29.71,South,180,6.0,8.1,64,0.00,CLR,,0.00,WeatherDisplay:10.37,2013-12-05 02:49:00,
2013-12-04 21:54:00,54.0,42.1,29.68,SSE,158,9.0,10.4,64,0.00,CLR,,0.00,WeatherDisplay:10.37,2013-12-05 02:54:00,
2013-12-04 21:59:00,54.1,42.2,29.68,SSE,158,9.4,13.8,64,0.00,CLR,,0.00,WeatherDisplay:10.37,2013-12-05 02:59:00,
2013-12-04 22:05:00,54.3,42.4,29.68,SSE,158,6.7,8.1,64,0.00,CLR,,0.00,WeatherDisplay:10.37,2013-12-05 03:05:00,
2013-12-04 22:10:00,54.5,42.6,29.68,SSE,158,9.0,11.4,64,0.00,CLR,,0.00,WeatherDisplay:10.37,2013-12-05 03:10:00,
2013-12-04 22:15:00,54.5,42.6,29.68,South,180,9.0,10.4,64,0.00,CLR,,0.00,WeatherDisplay:10.37,2013-12-05 03:15:00,
2013-12-04 22:20:00,54.7,42.7,29.68,SSE,158,8.5,10.4,64,0.00,CLR,,0.00,WeatherDisplay:10.37,2013-12-05 03:20:00,
2013-12-04 22:25:00,54.7,42.7,29.68,SSE,158,9.2,16.3,64,0.00,CLR,,0.00,WeatherDisplay:10.37,2013-12-05 03:25:00,
2013-12-04 22:30:00,55.0,43.1,29.68,South,180,9.7,12.3,64,0.00,CLR,,0.00,WeatherDisplay:10.37,2013-12-05 03:30:00,
2013-12-04 22:35:00,55.0,43.1,29.68,SSE,158,10.0,12.7,64,0.00,CLR,,0.00,WeatherDisplay:10.37,2013-12-05 03:35:00,
2013-12-04 22:40:00,55.2,43.2,29.62,SSE,158,9.0,12.7,64,0.00,CLR,,0.00,WeatherDisplay:10.37,2013-12-05 03:40:00,
2013-12-04 22:45:00,55.6,43.6,29.62,SSE,158,11.2,13.8,64,0.00,CLR,,0.00,WeatherDisplay:10.37,2013-12-05 03:45:00,
2013-12-04 22:50:00,55.8,43.8,29.62,SSE,158,12.3,13.8,64,0.00,CLR,,0.00,WeatherDisplay:10.37,2013-12-05 03:50:00,
2013-12-04 22:55:00,55.9,43.9,29.65,SSW,202,8.1,12.7,64,0.00,CLR,,0.00,WeatherDisplay:10.37,2013-12-05 03:55:00,
2013-12-04 23:00:00,55.9,43.9,29.65,SSW,202,9.4,15.0,64,0.00,CLR,,0.00,WeatherDisplay:10.37,2013-12-05 04:00:00,
2013-12-04 23:05:00,56.1,44.1,29.65,SSW,202,12.1,23.0,64,0.00,CLR,,0.00,WeatherDisplay:10.37,2013-12-05 04:05:00,
2013-12-04 23:10:00,56.3,44.3,29.65,SSW,202,7.8,12.7,64,0.00,CLR,,0.00,WeatherDisplay:10.37,2013-12-05 04:10:00,
2013-12-04 23:15:00,56.5,44.4,29.65,SSE,158,10.7,15.0,64,0.00,CLR,,0.00,WeatherDisplay:10.37,2013-12-05 04:15:00,
2013-12-04 23:20:00,56.5,44.0,29.65,SSW,202,7.1,10.4,63,0.00,CLR,,0.00,WeatherDisplay:10.37,2013-12-05 04:20:00,
2013-12-04 23:25:00,56.5,44.0,29.65,SSE,158,13.0,17.3,63,0.00,CLR,,0.00,WeatherDisplay:10.37,2013-12-05 04:25:00,
2013-12-04 23:30:00,56.7,44.2,29.65,South,180,10.5,23.0,63,0.00,CLR,,0.00,WeatherDisplay:10.37,2013-12-05 04:30:00,
2013-12-04 23:35:00,56.7,44.2,29.65,SSW,202,10.7,16.1,63,0.00,CLR,,0.00,WeatherDisplay:10.37,2013-12-05 04:35:00,
2013-12-04 23:40:00,56.7,43.8,29.62,SSE,158,12.3,17.3,62,0.00,CLR,,0.00,WeatherDisplay:10.37,2013-12-05 04:40:00,
2013-12-04 23:45:00,56.7,43.8,29.62,SSE,158,8.7,13.7,62,0.00,CLR,,0.00,WeatherDisplay:10.37,2013-12-05 04:45:00,
2013-12-04 23:50:00,56.7,43.8,29.62,SSE,158,9.8,17.6,62,0.00,CLR,,0.00,WeatherDisplay:10.37,2013-12-05 04:50:00,
2013-12-04 23:55:00,56.7,43.8,29.65,South,180,14.5,20.7,62,0.00,CLR,,0.00,WeatherDisplay:10.37,2013-12-05 04:55:00,